sensor_id;sensor_type;location;lat;lon;timestamp;pressure;altitude;pressure_sealevel;temperature;humidity
40794;BME280;26502;51.886;15.604;2023-07-29T00:03:50;100013.02;;;17.79;74.71
40794;BME280;26502;51.886;15.604;2023-07-29T00:08:53;100010.83;;;17.87;74.84
40794;BME280;26502;51.886;15.604;2023-07-29T00:13:56;100006.30;;;17.85;74.63
40794;BME280;26502;51.886;15.604;2023-07-29T00:19:00;100004.40;;;17.79;74.59
40794;BME280;26502;51.886;15.604;2023-07-29T00:24:03;99998.83;;;17.72;74.68
40794;BME280;26502;51.886;15.604;2023-07-29T00:29:06;100009.02;;;17.57;74.44
40794;BME280;26502;51.886;15.604;2023-07-29T00:34:10;100013.54;;;17.55;74.69
40794;BME280;26502;51.886;15.604;2023-07-29T00:39:13;100009.45;;;17.57;74.50
40794;BME280;26502;51.886;15.604;2023-07-29T00:44:16;100008.73;;;17.54;74.41
40794;BME280;26502;51.886;15.604;2023-07-29T00:49:20;100007.34;;;17.58;74.47
40794;BME280;26502;51.886;15.604;2023-07-29T00:54:24;100010.59;;;17.40;74.28
40794;BME280;26502;51.886;15.604;2023-07-29T00:59:27;100002.52;;;17.38;74.55
40794;BME280;26502;51.886;15.604;2023-07-29T01:04:34;99988.30;;;17.34;74.47
40794;BME280;26502;51.886;15.604;2023-07-29T01:09:41;99992.65;;;17.36;74.58
40794;BME280;26502;51.886;15.604;2023-07-29T01:14:50;99995.68;;;17.36;74.47
40794;BME280;26502;51.886;15.604;2023-07-29T01:20:01;99988.84;;;17.26;74.26
40794;BME280;26502;51.886;15.604;2023-07-29T01:25:08;99998.48;;;17.01;74.29
40794;BME280;26502;51.886;15.604;2023-07-29T01:30:11;100003.22;;;16.95;74.44
40794;BME280;26502;51.886;15.604;2023-07-29T01:35:21;100003.45;;;16.73;74.48
40794;BME280;26502;51.886;15.604;2023-07-29T01:40:27;100003.77;;;16.58;74.55
40794;BME280;26502;51.886;15.604;2023-07-29T01:45:31;99992.52;;;16.46;74.72
40794;BME280;26502;51.886;15.604;2023-07-29T01:50:37;99991.70;;;16.48;74.80
40794;BME280;26502;51.886;15.604;2023-07-29T01:55:43;99987.20;;;16.53;75.01
40794;BME280;26502;51.886;15.604;2023-07-29T02:00:47;99990.61;;;16.61;74.89
40794;BME280;26502;51.886;15.604;2023-07-29T02:05:50;99994.38;;;16.72;75.15
40794;BME280;26502;51.886;15.604;2023-07-29T02:10:53;99989.66;;;16.75;74.90
40794;BME280;26502;51.886;15.604;2023-07-29T02:15:57;99981.59;;;16.75;74.61
40794;BME280;26502;51.886;15.604;2023-07-29T02:21:00;99988.56;;;16.65;74.43
40794;BME280;26502;51.886;15.604;2023-07-29T02:26:03;99980.77;;;16.61;74.40
40794;BME280;26502;51.886;15.604;2023-07-29T02:31:17;99982.83;;;16.55;74.37
40794;BME280;26502;51.886;15.604;2023-07-29T02:36:21;99988.27;;;16.56;74.67
40794;BME280;26502;51.886;15.604;2023-07-29T02:41:24;99996.42;;;16.58;74.48
40794;BME280;26502;51.886;15.604;2023-07-29T02:46:27;99999.40;;;16.56;74.44
40794;BME280;26502;51.886;15.604;2023-07-29T02:51:31;99998.00;;;16.55;74.33
40794;BME280;26502;51.886;15.604;2023-07-29T02:56:34;100005.31;;;16.43;74.09
40794;BME280;26502;51.886;15.604;2023-07-29T03:01:38;100003.45;;;16.33;74.48
40794;BME280;26502;51.886;15.604;2023-07-29T03:06:41;100012.31;;;16.37;74.51
40794;BME280;26502;51.886;15.604;2023-07-29T03:11:45;100010.49;;;16.35;74.31
40794;BME280;26502;51.886;15.604;2023-07-29T03:16:48;100014.17;;;16.34;74.19
40794;BME280;26502;51.886;15.604;2023-07-29T03:21:51;100014.64;;;16.29;74.29
40794;BME280;26502;51.886;15.604;2023-07-29T03:26:55;100020.28;;;16.14;73.99
40794;BME280;26502;51.886;15.604;2023-07-29T03:31:58;100015.40;;;16.04;74.24
40794;BME280;26502;51.886;15.604;2023-07-29T03:37:02;100015.59;;;16.01;74.09
40794;BME280;26502;51.886;15.604;2023-07-29T03:42:06;100018.37;;;15.97;74.33
40794;BME280;26502;51.886;15.604;2023-07-29T03:47:09;100015.66;;;16.00;74.39
40794;BME280;26502;51.886;15.604;2023-07-29T03:52:13;100014.23;;;16.03;74.28
40794;BME280;26502;51.886;15.604;2023-07-29T03:57:16;100013.73;;;16.00;74.23
40794;BME280;26502;51.886;15.604;2023-07-29T04:02:20;100019.60;;;15.92;74.07
40794;BME280;26502;51.886;15.604;2023-07-29T04:07:23;100022.58;;;15.93;74.56
40794;BME280;26502;51.886;15.604;2023-07-29T04:12:27;100022.70;;;16.04;74.45
40794;BME280;26502;51.886;15.604;2023-07-29T04:17:30;100024.71;;;16.09;74.41
40794;BME280;26502;51.886;15.604;2023-07-29T04:22:34;100025.23;;;16.16;74.56
40794;BME280;26502;51.886;15.604;2023-07-29T04:27:37;100029.73;;;16.21;74.44
40794;BME280;26502;51.886;15.604;2023-07-29T04:32:40;100030.14;;;16.09;74.38
40794;BME280;26502;51.886;15.604;2023-07-29T04:37:45;100026.17;;;16.04;74.92
40794;BME280;26502;51.886;15.604;2023-07-29T04:42:50;100033.98;;;16.05;74.78
40794;BME280;26502;51.886;15.604;2023-07-29T04:47:54;100033.80;;;16.10;75.36
40794;BME280;26502;51.886;15.604;2023-07-29T04:52:57;100037.00;;;16.27;75.26
40794;BME280;26502;51.886;15.604;2023-07-29T04:58:00;100039.27;;;16.36;75.42
40794;BME280;26502;51.886;15.604;2023-07-29T05:03:03;100040.64;;;16.48;75.49
40794;BME280;26502;51.886;15.604;2023-07-29T05:08:07;100031.49;;;16.67;75.41
40794;BME280;26502;51.886;15.604;2023-07-29T05:13:10;100028.13;;;16.84;75.66
40794;BME280;26502;51.886;15.604;2023-07-29T05:18:14;100030.38;;;17.06;75.60
40794;BME280;26502;51.886;15.604;2023-07-29T05:23:18;100025.85;;;17.33;75.84
40794;BME280;26502;51.886;15.604;2023-07-29T05:28:21;100026.84;;;17.59;76.10
40794;BME280;26502;51.886;15.604;2023-07-29T05:33:24;100032.23;;;17.92;76.31
40794;BME280;26502;51.886;15.604;2023-07-29T05:38:28;100031.10;;;18.22;76.39
40794;BME280;26502;51.886;15.604;2023-07-29T05:43:31;100026.87;;;18.43;76.24
40794;BME280;26502;51.886;15.604;2023-07-29T05:48:34;100029.39;;;18.43;75.87
40794;BME280;26502;51.886;15.604;2023-07-29T05:53:39;100024.15;;;18.66;76.39
40794;BME280;26502;51.886;15.604;2023-07-29T05:58:42;100032.46;;;18.82;76.16
40794;BME280;26502;51.886;15.604;2023-07-29T06:03:46;100034.08;;;18.94;76.30
40794;BME280;26502;51.886;15.604;2023-07-29T06:08:50;100028.33;;;19.13;76.04
40794;BME280;26502;51.886;15.604;2023-07-29T06:13:54;100027.15;;;19.18;76.20
40794;BME280;26502;51.886;15.604;2023-07-29T06:18:57;100040.44;;;19.17;76.19
40794;BME280;26502;51.886;15.604;2023-07-29T06:24:00;100034.61;;;19.09;76.29
40794;BME280;26502;51.886;15.604;2023-07-29T06:29:04;100033.39;;;18.98;76.22
40794;BME280;26502;51.886;15.604;2023-07-29T06:34:07;100030.63;;;19.06;76.60
40794;BME280;26502;51.886;15.604;2023-07-29T06:39:11;100026.25;;;19.52;77.04
40794;BME280;26502;51.886;15.604;2023-07-29T06:44:14;100019.89;;;19.85;76.59
40794;BME280;26502;51.886;15.604;2023-07-29T06:49:17;100012.55;;;19.98;76.29
40794;BME280;26502;51.886;15.604;2023-07-29T06:54:24;100012.35;;;20.13;76.13
40794;BME280;26502;51.886;15.604;2023-07-29T06:59:28;100011.08;;;20.52;76.21
40794;BME280;26502;51.886;15.604;2023-07-29T07:04:31;100010.72;;;20.74;75.65
40794;BME280;26502;51.886;15.604;2023-07-29T07:09:34;100009.31;;;21.01;75.46
40794;BME280;26502;51.886;15.604;2023-07-29T07:14:38;100000.48;;;21.27;75.65
40794;BME280;26502;51.886;15.604;2023-07-29T07:19:42;99995.05;;;21.58;75.20
40794;BME280;26502;51.886;15.604;2023-07-29T07:24:45;99989.42;;;21.99;75.35
40794;BME280;26502;51.886;15.604;2023-07-29T07:29:48;99977.75;;;22.20;74.27
40794;BME280;26502;51.886;15.604;2023-07-29T07:34:52;99973.31;;;22.33;74.22
40794;BME280;26502;51.886;15.604;2023-07-29T07:39:55;99967.49;;;22.47;73.76
40794;BME280;26502;51.886;15.604;2023-07-29T07:44:58;99963.15;;;22.63;73.53
40794;BME280;26502;51.886;15.604;2023-07-29T07:50:02;99951.86;;;22.54;72.79
40794;BME280;26502;51.886;15.604;2023-07-29T07:55:07;99959.85;;;22.49;72.76
40794;BME280;26502;51.886;15.604;2023-07-29T08:00:12;99958.10;;;22.78;72.90
40794;BME280;26502;51.886;15.604;2023-07-29T08:05:18;99957.27;;;22.98;71.66
40794;BME280;26502;51.886;15.604;2023-07-29T08:10:21;99958.83;;;22.93;71.71
40794;BME280;26502;51.886;15.604;2023-07-29T08:15:24;99960.20;;;23.11;71.08
40794;BME280;26502;51.886;15.604;2023-07-29T08:20:28;99970.30;;;23.09;70.53
40794;BME280;26502;51.886;15.604;2023-07-29T08:25:31;99961.13;;;23.20;70.40
40794;BME280;26502;51.886;15.604;2023-07-29T08:30:34;99957.42;;;23.54;70.13
40794;BME280;26502;51.886;15.604;2023-07-29T08:35:38;99953.40;;;23.73;69.17
40794;BME280;26502;51.886;15.604;2023-07-29T08:40:45;99956.41;;;24.10;68.98
40794;BME280;26502;51.886;15.604;2023-07-29T08:45:51;99950.45;;;24.42;68.14
40794;BME280;26502;51.886;15.604;2023-07-29T08:50:55;99947.58;;;24.51;67.63
40794;BME280;26502;51.886;15.604;2023-07-29T08:55:58;99946.64;;;24.35;67.42
40794;BME280;26502;51.886;15.604;2023-07-29T09:01:02;99941.65;;;24.36;67.26
40794;BME280;26502;51.886;15.604;2023-07-29T09:06:06;99939.08;;;24.58;67.08
40794;BME280;26502;51.886;15.604;2023-07-29T09:11:12;99937.15;;;24.75;66.57
40794;BME280;26502;51.886;15.604;2023-07-29T09:16:16;99936.91;;;24.90;65.88
40794;BME280;26502;51.886;15.604;2023-07-29T09:21:23;99930.70;;;24.99;65.26
40794;BME280;26502;51.886;15.604;2023-07-29T09:26:28;99925.02;;;25.02;64.30
40794;BME280;26502;51.886;15.604;2023-07-29T09:31:31;99919.62;;;25.16;64.04
40794;BME280;26502;51.886;15.604;2023-07-29T09:36:34;99913.11;;;25.14;63.38
40794;BME280;26502;51.886;15.604;2023-07-29T09:41:38;99908.95;;;25.13;63.45
40794;BME280;26502;51.886;15.604;2023-07-29T09:46:46;99896.41;;;25.08;63.18
40794;BME280;26502;51.886;15.604;2023-07-29T09:51:49;99889.80;;;25.33;62.70
40794;BME280;26502;51.886;15.604;2023-07-29T09:56:53;99884.94;;;25.78;62.74
40794;BME280;26502;51.886;15.604;2023-07-29T10:01:57;99880.42;;;26.09;61.79
40794;BME280;26502;51.886;15.604;2023-07-29T10:07:01;99878.79;;;26.26;61.35
40794;BME280;26502;51.886;15.604;2023-07-29T10:12:07;99878.55;;;26.22;60.34
40794;BME280;26502;51.886;15.604;2023-07-29T10:17:11;99869.27;;;26.20;59.95
40794;BME280;26502;51.886;15.604;2023-07-29T10:22:19;99871.29;;;26.48;59.11
40794;BME280;26502;51.886;15.604;2023-07-29T10:27:25;99877.59;;;26.53;58.52
40794;BME280;26502;51.886;15.604;2023-07-29T10:32:29;99868.64;;;26.64;56.64
40794;BME280;26502;51.886;15.604;2023-07-29T10:37:34;99868.93;;;26.51;55.34
40794;BME280;26502;51.886;15.604;2023-07-29T10:42:38;99865.58;;;26.24;55.42
40794;BME280;26502;51.886;15.604;2023-07-29T10:48:06;99861.04;;;25.94;55.57
40794;BME280;26502;51.886;15.604;2023-07-29T10:53:11;99856.38;;;25.90;55.26
40794;BME280;26502;51.886;15.604;2023-07-29T10:58:15;99856.10;;;25.81;55.74
40794;BME280;26502;51.886;15.604;2023-07-29T11:03:20;99848.52;;;26.15;56.11
40794;BME280;26502;51.886;15.604;2023-07-29T11:08:29;99830.96;;;26.83;55.67
40794;BME280;26502;51.886;15.604;2023-07-29T11:13:34;99820.83;;;26.77;54.66
40794;BME280;26502;51.886;15.604;2023-07-29T11:18:37;99811.48;;;26.87;54.89
40794;BME280;26502;51.886;15.604;2023-07-29T11:23:43;99803.14;;;27.27;54.73
40794;BME280;26502;51.886;15.604;2023-07-29T11:28:47;99807.23;;;27.48;54.37
40794;BME280;26502;51.886;15.604;2023-07-29T11:33:50;99803.10;;;27.22;53.92
40794;BME280;26502;51.886;15.604;2023-07-29T11:38:53;99800.94;;;26.92;53.88
40794;BME280;26502;51.886;15.604;2023-07-29T11:43:57;99815.30;;;26.63;53.69
40794;BME280;26502;51.886;15.604;2023-07-29T11:49:01;99821.83;;;26.05;54.07
40794;BME280;26502;51.886;15.604;2023-07-29T11:54:05;99817.79;;;25.59;55.21
40794;BME280;26502;51.886;15.604;2023-07-29T11:59:09;99808.89;;;25.42;55.99
40794;BME280;26502;51.886;15.604;2023-07-29T12:04:13;99793.67;;;25.45;56.43
40794;BME280;26502;51.886;15.604;2023-07-29T12:09:17;99782.85;;;25.48;56.58
40794;BME280;26502;51.886;15.604;2023-07-29T12:14:20;99778.44;;;25.74;56.58
40794;BME280;26502;51.886;15.604;2023-07-29T12:19:23;99772.30;;;25.96;56.43
40794;BME280;26502;51.886;15.604;2023-07-29T12:24:28;99765.38;;;25.89;56.67
40794;BME280;26502;51.886;15.604;2023-07-29T12:29:32;99758.29;;;26.12;56.98
40794;BME280;26502;51.886;15.604;2023-07-29T12:34:42;99751.75;;;26.44;57.12
40794;BME280;26502;51.886;15.604;2023-07-29T12:39:45;99743.88;;;26.85;56.69
40794;BME280;26502;51.886;15.604;2023-07-29T12:44:53;99731.25;;;26.88;55.97
40794;BME280;26502;51.886;15.604;2023-07-29T12:49:56;99712.48;;;26.85;56.11
40794;BME280;26502;51.886;15.604;2023-07-29T12:54:59;99715.69;;;27.01;55.92
40794;BME280;26502;51.886;15.604;2023-07-29T13:00:05;99717.11;;;27.08;55.39
40794;BME280;26502;51.886;15.604;2023-07-29T13:05:10;99712.11;;;27.43;54.91
40794;BME280;26502;51.886;15.604;2023-07-29T13:10:14;99710.31;;;27.61;54.33
40794;BME280;26502;51.886;15.604;2023-07-29T13:15:17;99698.33;;;27.48;54.17
40794;BME280;26502;51.886;15.604;2023-07-29T13:20:21;99699.63;;;27.48;53.49
40794;BME280;26502;51.886;15.604;2023-07-29T13:25:25;99695.48;;;27.74;51.83
40794;BME280;26502;51.886;15.604;2023-07-29T13:30:28;99695.39;;;27.67;51.78
40794;BME280;26502;51.886;15.604;2023-07-29T13:35:32;99692.66;;;27.59;51.47
40794;BME280;26502;51.886;15.604;2023-07-29T13:40:35;99686.77;;;27.91;50.85
40794;BME280;26502;51.886;15.604;2023-07-29T13:45:38;99680.70;;;27.80;50.54
40794;BME280;26502;51.886;15.604;2023-07-29T13:50:41;99673.20;;;27.59;50.53
40794;BME280;26502;51.886;15.604;2023-07-29T13:55:47;99672.96;;;27.35;50.14
40794;BME280;26502;51.886;15.604;2023-07-29T14:00:50;99671.33;;;27.13;49.85
40794;BME280;26502;51.886;15.604;2023-07-29T14:05:55;99672.20;;;26.98;49.87
40794;BME280;26502;51.886;15.604;2023-07-29T14:10:58;99670.23;;;26.83;49.88
40794;BME280;26502;51.886;15.604;2023-07-29T14:16:02;99674.92;;;26.71;49.78
40794;BME280;26502;51.886;15.604;2023-07-29T14:21:05;99680.48;;;26.45;50.50
40794;BME280;26502;51.886;15.604;2023-07-29T14:26:09;99694.77;;;26.04;51.10
40794;BME280;26502;51.886;15.604;2023-07-29T14:31:12;99696.58;;;25.49;52.43
40794;BME280;26502;51.886;15.604;2023-07-29T14:36:16;99681.95;;;25.26;53.43
40794;BME280;26502;51.886;15.604;2023-07-29T14:41:19;99680.31;;;25.21;54.18
40794;BME280;26502;51.886;15.604;2023-07-29T14:46:22;99679.60;;;25.14;54.91
40794;BME280;26502;51.886;15.604;2023-07-29T14:51:26;99674.09;;;25.26;55.19
40794;BME280;26502;51.886;15.604;2023-07-29T14:56:29;99669.92;;;25.30;55.25
40794;BME280;26502;51.886;15.604;2023-07-29T15:01:32;99670.48;;;25.26;55.41
40794;BME280;26502;51.886;15.604;2023-07-29T15:06:36;99675.86;;;25.17;55.41
40794;BME280;26502;51.886;15.604;2023-07-29T15:11:39;99673.55;;;25.13;55.40
40794;BME280;26502;51.886;15.604;2023-07-29T15:16:43;99672.24;;;25.09;55.53
40794;BME280;26502;51.886;15.604;2023-07-29T15:21:46;99664.92;;;25.08;55.65
40794;BME280;26502;51.886;15.604;2023-07-29T15:26:50;99658.75;;;25.06;55.25
40794;BME280;26502;51.886;15.604;2023-07-29T15:31:53;99661.33;;;24.95;55.07
40794;BME280;26502;51.886;15.604;2023-07-29T15:36:56;99670.63;;;24.93;55.14
40794;BME280;26502;51.886;15.604;2023-07-29T15:41:59;99681.59;;;24.96;55.30
40794;BME280;26502;51.886;15.604;2023-07-29T15:47:04;99699.02;;;24.81;55.37
40794;BME280;26502;51.886;15.604;2023-07-29T15:52:08;99700.61;;;24.40;55.41
40794;BME280;26502;51.886;15.604;2023-07-29T15:57:13;99710.04;;;23.97;55.44
40794;BME280;26502;51.886;15.604;2023-07-29T16:02:16;99722.54;;;23.51;55.90
40794;BME280;26502;51.886;15.604;2023-07-29T16:07:21;99721.06;;;23.13;56.51
40794;BME280;26502;51.886;15.604;2023-07-29T16:12:24;99722.19;;;22.87;56.93
40794;BME280;26502;51.886;15.604;2023-07-29T16:17:28;99758.63;;;22.48;58.23
40794;BME280;26502;51.886;15.604;2023-07-29T16:22:31;99771.04;;;21.74;59.41
40794;BME280;26502;51.886;15.604;2023-07-29T16:27:35;99773.38;;;21.21;60.85
40794;BME280;26502;51.886;15.604;2023-07-29T16:32:38;99767.57;;;20.89;61.63
40794;BME280;26502;51.886;15.604;2023-07-29T16:37:42;99746.34;;;20.78;62.76
40794;BME280;26502;51.886;15.604;2023-07-29T16:42:45;99750.60;;;20.71;63.40
40794;BME280;26502;51.886;15.604;2023-07-29T16:47:48;99741.81;;;20.85;63.95
40794;BME280;26502;51.886;15.604;2023-07-29T16:52:52;99748.63;;;21.03;64.20
40794;BME280;26502;51.886;15.604;2023-07-29T16:57:56;99754.77;;;21.17;64.66
40794;BME280;26502;51.886;15.604;2023-07-29T17:02:59;99760.73;;;21.27;65.03
40794;BME280;26502;51.886;15.604;2023-07-29T17:08:04;99769.41;;;21.44;65.20
40794;BME280;26502;51.886;15.604;2023-07-29T17:13:07;99768.09;;;21.31;65.45
40794;BME280;26502;51.886;15.604;2023-07-29T17:18:10;99763.57;;;21.37;65.97
40794;BME280;26502;51.886;15.604;2023-07-29T17:23:13;99767.10;;;21.44;65.98
40794;BME280;26502;51.886;15.604;2023-07-29T17:28:17;99765.77;;;21.40;66.06
40794;BME280;26502;51.886;15.604;2023-07-29T17:33:20;99774.47;;;21.29;66.36
40794;BME280;26502;51.886;15.604;2023-07-29T17:38:23;99787.08;;;21.29;66.91
40794;BME280;26502;51.886;15.604;2023-07-29T17:43:27;99798.48;;;21.33;67.24
40794;BME280;26502;51.886;15.604;2023-07-29T17:48:30;99811.12;;;21.42;67.36
40794;BME280;26502;51.886;15.604;2023-07-29T17:53:34;99807.21;;;21.36;67.47
40794;BME280;26502;51.886;15.604;2023-07-29T17:58:37;99801.57;;;21.35;67.58
40794;BME280;26502;51.886;15.604;2023-07-29T18:03:40;99806.34;;;21.09;67.47
40794;BME280;26502;51.886;15.604;2023-07-29T18:08:44;99814.99;;;20.94;67.86
40794;BME280;26502;51.886;15.604;2023-07-29T18:13:48;99829.79;;;20.69;68.22
40794;BME280;26502;51.886;15.604;2023-07-29T18:18:51;99832.64;;;20.70;68.83
40794;BME280;26502;51.886;15.604;2023-07-29T18:23:54;99825.70;;;20.70;68.90
40794;BME280;26502;51.886;15.604;2023-07-29T18:28:58;99815.10;;;20.82;69.03
40794;BME280;26502;51.886;15.604;2023-07-29T18:34:01;99812.51;;;20.89;69.07
40794;BME280;26502;51.886;15.604;2023-07-29T18:39:05;99821.73;;;20.83;68.85
40794;BME280;26502;51.886;15.604;2023-07-29T18:44:08;99842.09;;;20.58;69.26
40794;BME280;26502;51.886;15.604;2023-07-29T18:49:12;99865.04;;;20.37;69.54
40794;BME280;26502;51.886;15.604;2023-07-29T18:54:15;99888.20;;;20.13;70.00
40794;BME280;26502;51.886;15.604;2023-07-29T18:59:18;99894.67;;;20.04;70.47
40794;BME280;26502;51.886;15.604;2023-07-29T19:04:24;99895.11;;;19.99;70.77
40794;BME280;26502;51.886;15.604;2023-07-29T19:09:28;99904.64;;;20.01;71.12
40794;BME280;26502;51.886;15.604;2023-07-29T19:14:31;99903.38;;;20.02;71.33
40794;BME280;26502;51.886;15.604;2023-07-29T19:19:34;99897.41;;;20.04;71.53
40794;BME280;26502;51.886;15.604;2023-07-29T19:24:38;99886.95;;;20.10;71.55
40794;BME280;26502;51.886;15.604;2023-07-29T19:29:42;99886.35;;;20.00;71.63
40794;BME280;26502;51.886;15.604;2023-07-29T19:34:47;99880.94;;;19.94;71.88
40794;BME280;26502;51.886;15.604;2023-07-29T19:39:57;99868.02;;;19.96;72.06
40794;BME280;26502;51.886;15.604;2023-07-29T19:45:00;99865.77;;;19.93;71.93
40794;BME280;26502;51.886;15.604;2023-07-29T19:50:07;99872.86;;;19.85;72.09
40794;BME280;26502;51.886;15.604;2023-07-29T19:55:10;99873.10;;;19.73;72.33
40794;BME280;26502;51.886;15.604;2023-07-29T20:00:15;99875.75;;;19.63;72.45
40794;BME280;26502;51.886;15.604;2023-07-29T20:05:20;99881.66;;;19.46;72.54
40794;BME280;26502;51.886;15.604;2023-07-29T20:10:25;99876.88;;;19.36;73.13
40794;BME280;26502;51.886;15.604;2023-07-29T20:15:29;99873.35;;;19.31;73.31
40794;BME280;26502;51.886;15.604;2023-07-29T20:20:33;99886.70;;;19.22;73.38
40794;BME280;26502;51.886;15.604;2023-07-29T20:25:37;99889.98;;;19.12;73.81
40794;BME280;26502;51.886;15.604;2023-07-29T20:30:44;99886.39;;;19.08;74.09
40794;BME280;26502;51.886;15.604;2023-07-29T20:35:54;99890.25;;;19.02;74.08
40794;BME280;26502;51.886;15.604;2023-07-29T20:40:58;99893.98;;;18.89;74.37
40794;BME280;26502;51.886;15.604;2023-07-29T20:46:02;99900.34;;;18.77;74.68
40794;BME280;26502;51.886;15.604;2023-07-29T20:51:06;99905.95;;;18.69;75.08
40794;BME280;26502;51.886;15.604;2023-07-29T20:56:10;99906.96;;;18.70;75.31
40794;BME280;26502;51.886;15.604;2023-07-29T21:01:13;99917.21;;;18.68;75.07
40794;BME280;26502;51.886;15.604;2023-07-29T21:06:16;99927.21;;;18.57;75.33
40794;BME280;26502;51.886;15.604;2023-07-29T21:11:20;99934.61;;;18.36;76.36
40794;BME280;26502;51.886;15.604;2023-07-29T21:16:24;99936.50;;;18.25;76.36
40794;BME280;26502;51.886;15.604;2023-07-29T21:21:27;99937.39;;;18.16;76.64
40794;BME280;26502;51.886;15.604;2023-07-29T21:26:30;99936.96;;;18.16;76.76
40794;BME280;26502;51.886;15.604;2023-07-29T21:31:34;99943.88;;;18.16;76.81
40794;BME280;26502;51.886;15.604;2023-07-29T21:36:37;99943.51;;;18.18;76.73
40794;BME280;26502;51.886;15.604;2023-07-29T21:41:40;99944.86;;;18.17;76.56
40794;BME280;26502;51.886;15.604;2023-07-29T21:46:43;99943.34;;;18.11;76.48
40794;BME280;26502;51.886;15.604;2023-07-29T21:51:47;99938.23;;;18.00;76.49
40794;BME280;26502;51.886;15.604;2023-07-29T21:56:50;99937.83;;;17.91;76.72
40794;BME280;26502;51.886;15.604;2023-07-29T22:01:53;99939.34;;;17.87;76.70
40794;BME280;26502;51.886;15.604;2023-07-29T22:06:56;99942.80;;;17.81;76.91
40794;BME280;26502;51.886;15.604;2023-07-29T22:12:00;99946.59;;;17.76;76.71
40794;BME280;26502;51.886;15.604;2023-07-29T22:17:04;99946.70;;;17.73;76.77
40794;BME280;26502;51.886;15.604;2023-07-29T22:22:08;99946.01;;;17.65;76.69
40794;BME280;26502;51.886;15.604;2023-07-29T22:27:11;99949.46;;;17.54;76.87
40794;BME280;26502;51.886;15.604;2023-07-29T22:32:15;99948.58;;;17.54;76.97
40794;BME280;26502;51.886;15.604;2023-07-29T22:37:18;99949.73;;;17.53;76.97
40794;BME280;26502;51.886;15.604;2023-07-29T22:42:21;99964.67;;;17.47;77.00
40794;BME280;26502;51.886;15.604;2023-07-29T22:47:24;99966.76;;;17.41;77.07
40794;BME280;26502;51.886;15.604;2023-07-29T22:52:28;99967.42;;;17.27;77.05
40794;BME280;26502;51.886;15.604;2023-07-29T22:57:31;99965.83;;;17.24;77.10
40794;BME280;26502;51.886;15.604;2023-07-29T23:02:35;99967.29;;;17.16;77.23
40794;BME280;26502;51.886;15.604;2023-07-29T23:07:38;99971.33;;;17.14;77.68
40794;BME280;26502;51.886;15.604;2023-07-29T23:12:41;99973.48;;;17.17;77.44
40794;BME280;26502;51.886;15.604;2023-07-29T23:17:45;99976.46;;;17.03;77.19
40794;BME280;26502;51.886;15.604;2023-07-29T23:22:48;99987.50;;;16.86;77.82
40794;BME280;26502;51.886;15.604;2023-07-29T23:27:52;99986.59;;;16.83;77.83
40794;BME280;26502;51.886;15.604;2023-07-29T23:32:55;99990.19;;;16.75;78.03
40794;BME280;26502;51.886;15.604;2023-07-29T23:37:58;99985.84;;;16.71;78.21
40794;BME280;26502;51.886;15.604;2023-07-29T23:43:02;99986.30;;;16.74;78.27
40794;BME280;26502;51.886;15.604;2023-07-29T23:48:05;99984.71;;;16.69;78.11
40794;BME280;26502;51.886;15.604;2023-07-29T23:53:09;99985.25;;;16.69;78.14
40794;BME280;26502;51.886;15.604;2023-07-29T23:58:12;99980.36;;;16.64;77.91
